Saint Louis, MO

5:59 PM CDT on September 20, 2014 (GMT -0500)
East Madison, Kirkwood, MO | Change Station
CLOSE
Current Station
Personal Weather Station
Location: Kirkwood, MO
Elevation: 653 ft
Nearby Weather Stations

Elev 653 ft 38.58 °N, 90.39 °W | Updated 9 seconds ago

Mostly Cloudy
Mostly Cloudy
84.7 °F
Feels Like 88 °F
N
4.9
Wind Variable Wind from NW
Gusts 8.0 mph

Today
High -- | Low -- °F
--% Chance of Precip.
Yesterday
High -- | Low -- °F
Precip. -- in
6:47 AM 7:01 PM
Waning Crescent, 10% visible
Pressure 29.92 in
Visibility 10.0 miles
Clouds Few 4000 ft
Mostly Cloudy 20000 ft
Heat Index 88 °F
Dew Point 68 °F
Humidity 58%
Rainfall 0.00 in
Snow Depth Not available.
UV 1 out of 12
Pollen 7.40 out of 12
Ozone Good
PM2.5 Moderate
Flu Activity Not available.
METAR KSTL 202151Z 25008KT 10SM FEW040 BKN200 31/20 A2992

More Conditions Fewer Conditions

Pressure 29.92 in
Visibility 10.0 miles
Clouds Few 4000 ft
Mostly Cloudy 20000 ft
Heat Index 88 °F
Dew Point 68 °F
Humidity 58%
Rainfall 0.00 in
Snow Depth Not available.
UV 1 out of 12
Pollen 7.40 out of 12
Ozone Good
PM2.5 Moderate
Flu Activity Not available.
METAR KSTL 202151Z 25008KT 10SM FEW040 BKN200 31/20 A2992

More Conditions Fewer Conditions

10-Day Weather Forecast

Almanac

Astronomy

Sep. 20, 2014 Rise Set
Actual Time 6:47 AM CDT 7:01 PM CDT
Civil Twilight 6:20 AM CDT 7:28 PM CDT
Nautical Twilight 5:49 AM CDT 7:59 PM CDT
Astronomical Twilight 5:18 AM CDT 8:30 PM CDT
Moon 3:28 AM CDT 5:03 PM CDT
Length of Visible Light 13h 07m
Length of Day
12h 14m
Tomorrow will be 2m 28s shorter.
Waning Crescent, 10% of the Moon is Illuminated
Today
Waning Crescent
Sep 24
New
Oct 1
First Quarter
Oct 8
Full
Oct 15
Last Quarter

Today's Extremes

State Highs State Lows

Community

WunderPhotos

Upload Photos

1,754,970 photos uploaded!

WunderBlogs® & News

Nearby

Air Quality

  Air Quality AQ Index Pollutant
Yesterday Moderate
OZONE
Yesterday Moderate
PM2.5
Current Moderate
PM2.5
Current Good
OZONE
Saturday Good
PM2.5
Sunday Good
PM2.5

Snow Depth

Station Depth Elevation
No new snow has been reported.

Earthquake Activity

City Distance Mag. Time & Date
No recent earthquake activity has been reported nearby.
Minimum magnitude displayed is 2.5.

Coastal Water Temperatures

Place Temperature
No Stations Reporting

Nearby Weather Stations